createdAt,value
2022-09-25T00:01:06.764Z,12.10
2022-09-25T00:03:33.783Z,12.27
2022-09-25T00:06:07.147Z,13.15
2022-09-25T00:08:35.539Z,10.25
2022-09-25T00:11:07.947Z,9.15
2022-09-25T00:13:35.763Z,11.75
2022-09-25T00:16:03.225Z,11.55
2022-09-25T00:18:49.122Z,9.35
2022-09-25T00:21:18.053Z,10.20
2022-09-25T00:23:45.642Z,15.63
2022-09-25T00:26:14.712Z,13.57
2022-09-25T00:28:42.823Z,12.13
2022-09-25T00:31:11.158Z,19.30
2022-09-25T00:33:38.164Z,9.88
2022-09-25T00:36:10.885Z,10.27
2022-09-25T00:38:38.608Z,5.38
2022-09-25T00:41:07.577Z,12.48
2022-09-25T00:43:40.472Z,13.30
2022-09-25T00:46:36.635Z,9.95
2022-09-25T00:49:20.120Z,8.57
2022-09-25T00:52:07.343Z,17.90
2022-09-25T00:55:05.415Z,7.40
2022-09-25T00:57:34.399Z,10.90
2022-09-25T01:00:12.252Z,9.73
2022-09-25T01:02:47.102Z,11.20
2022-09-25T01:05:18.209Z,11.98
2022-09-25T01:07:48.269Z,8.18
2022-09-25T01:10:16.286Z,8.95
2022-09-25T01:12:47.279Z,8.13
2022-09-25T01:15:16.498Z,6.60
2022-09-25T01:18:18.288Z,10.23
2022-09-25T01:21:22.371Z,7.63
2022-09-25T01:24:08.092Z,8.48
2022-09-25T01:26:56.513Z,10.77
2022-09-25T01:29:42.930Z,8.07
2022-09-25T01:32:22.917Z,10.30
2022-09-25T01:35:01.419Z,10.90
2022-09-25T01:38:01.666Z,13.40
2022-09-25T01:41:17.756Z,12.23
2022-09-25T01:43:50.380Z,20.23
2022-09-25T01:46:21.930Z,6.78
2022-09-25T01:48:54.837Z,11.77
2022-09-25T01:51:49.948Z,15.10
2022-09-25T01:54:24.976Z,11.98
2022-09-25T01:56:56.954Z,10.20
2022-09-25T01:59:26.818Z,9.02
2022-09-25T02:01:55.786Z,7.18
2022-09-25T02:04:37.312Z,13.50
2022-09-25T02:07:09.390Z,10.20
2022-09-25T02:09:52.529Z,13.57
2022-09-25T02:12:26.697Z,10.48
2022-09-25T02:15:04.756Z,11.38
2022-09-25T02:18:18.577Z,10.25
2022-09-25T02:21:15.600Z,14.75
2022-09-25T02:23:52.920Z,14.95
2022-09-25T02:26:32.304Z,11.95
2022-09-25T02:28:59.858Z,7.28
2022-09-25T02:31:43.206Z,9.65
2022-09-25T02:34:15.068Z,10.75
2022-09-25T02:39:10.906Z,8.30
2022-09-25T02:41:59.984Z,8.82
2022-09-25T02:44:45.441Z,11.25
2022-09-25T02:47:24.325Z,15.02
2022-09-25T02:50:11.700Z,11.48
2022-09-25T02:52:53.605Z,10.82
2022-09-25T02:55:49.676Z,13.27
2022-09-25T02:58:19.225Z,10.52
2022-09-25T03:00:49.934Z,14.48
2022-09-25T03:03:19.496Z,14.13
2022-09-25T03:05:48.964Z,14.93
2022-09-25T03:08:35.077Z,13.38
2022-09-25T03:11:04.380Z,17.25
2022-09-25T03:13:34.095Z,12.30
2022-09-25T03:16:13.895Z,10.68
2022-09-25T03:18:40.867Z,14.85
2022-09-25T03:21:07.733Z,10.15
2022-09-25T03:23:34.591Z,11.15
2022-09-25T03:26:01.687Z,14.23
2022-09-25T03:28:28.865Z,14.73
2022-09-25T03:31:03.113Z,12.45
2022-09-25T03:33:35.300Z,17.48
2022-09-25T03:38:34.320Z,13.00
2022-09-25T03:41:02.109Z,12.50
2022-09-25T03:43:37.353Z,19.27
2022-09-25T03:46:11.470Z,19.13
2022-09-25T03:48:39.133Z,12.90
2022-09-25T03:51:06.505Z,13.27
2022-09-25T03:53:33.820Z,14.30
2022-09-25T03:56:02.376Z,13.20
2022-09-25T03:58:29.474Z,20.17
2022-09-25T04:00:57.726Z,20.42
2022-09-25T04:03:29.272Z,14.40
2022-09-25T04:05:58.093Z,16.02
2022-09-25T04:08:27.525Z,17.90
2022-09-25T04:11:02.271Z,12.07
2022-09-25T04:13:31.702Z,16.58
2022-09-25T04:16:01.728Z,15.27
2022-09-25T04:18:32.020Z,15.40
2022-09-25T04:21:00.071Z,16.15
2022-09-25T04:23:27.266Z,13.35
2022-09-25T04:25:54.315Z,14.52
2022-09-25T04:28:22.363Z,15.90
2022-09-25T04:30:49.637Z,14.98
2022-09-25T04:33:36.142Z,28.73
2022-09-25T04:36:03.757Z,16.75
2022-09-25T04:38:33.878Z,12.93
2022-09-25T04:41:01.945Z,20.40
2022-09-25T04:43:29.952Z,19.15
2022-09-25T04:46:01.875Z,18.27
2022-09-25T04:48:29.401Z,22.10
2022-09-25T04:50:56.716Z,21.67
2022-09-25T04:53:23.762Z,29.85
2022-09-25T04:55:51.724Z,25.30
2022-09-25T04:58:19.288Z,21.92
2022-09-25T05:00:46.349Z,26.27
2022-09-25T05:03:13.275Z,31.83
2022-09-25T05:05:40.245Z,22.05
2022-09-25T05:08:07.437Z,29.08
2022-09-25T05:10:35.057Z,29.52
2022-09-25T05:13:03.636Z,22.98
2022-09-25T05:15:32.825Z,25.52
2022-09-25T05:18:01.265Z,31.70
2022-09-25T05:20:28.615Z,26.35
2022-09-25T05:22:56.952Z,29.15
2022-09-25T05:25:25.385Z,29.48
2022-09-25T05:27:58.268Z,28.25
2022-09-25T05:30:26.747Z,25.65
2022-09-25T05:32:53.804Z,26.58
2022-09-25T05:35:24.069Z,35.83
2022-09-25T05:37:51.577Z,31.27
2022-09-25T05:40:21.047Z,32.72
2022-09-25T05:42:49.123Z,36.47
2022-09-25T05:45:18.062Z,33.38
2022-09-25T05:47:44.978Z,30.10
2022-09-25T05:50:14.702Z,23.38
2022-09-25T05:52:41.516Z,32.28
2022-09-25T05:55:09.766Z,21.35
2022-09-25T05:57:38.086Z,36.42
2022-09-25T06:00:19.170Z,37.85
2022-09-25T06:02:51.089Z,27.42
2022-09-25T06:05:17.972Z,28.65
2022-09-25T06:07:44.757Z,22.52
2022-09-25T06:10:11.541Z,28.42
2022-09-25T06:12:38.351Z,26.25
2022-09-25T06:15:05.665Z,31.95
2022-09-25T06:17:32.468Z,33.22
2022-09-25T06:19:59.289Z,32.08
2022-09-25T06:22:26.272Z,29.95
2022-09-25T06:24:53.040Z,27.63
2022-09-25T06:27:19.833Z,23.50
2022-09-25T06:29:46.636Z,29.05
2022-09-25T06:32:13.467Z,21.80
2022-09-25T06:34:40.278Z,22.90
2022-09-25T06:37:07.036Z,38.35
2022-09-25T06:39:34.012Z,25.42
2022-09-25T06:42:00.829Z,27.20
2022-09-25T06:44:28.333Z,30.75
2022-09-25T06:46:55.484Z,25.50
2022-09-25T06:49:22.962Z,32.00
2022-09-25T06:51:51.268Z,38.47
2022-09-25T06:54:18.134Z,23.95
2022-09-25T06:56:49.416Z,26.00
2022-09-25T06:59:17.044Z,30.53
2022-09-25T07:01:43.938Z,28.33
2022-09-25T07:04:10.782Z,25.80
2022-09-25T07:06:37.967Z,31.75
2022-09-25T07:09:04.972Z,21.25
2022-09-25T07:11:31.761Z,24.70
2022-09-25T07:13:58.833Z,21.15
2022-09-25T07:16:30.615Z,28.38
2022-09-25T07:19:00.786Z,34.35
2022-09-25T07:21:30.555Z,22.48
2022-09-25T07:23:59.068Z,24.80
2022-09-25T07:26:28.733Z,24.00
2022-09-25T07:29:01.525Z,27.40
2022-09-25T07:31:33.430Z,24.65
2022-09-25T07:34:05.879Z,19.08
2022-09-25T07:36:33.959Z,22.92
2022-09-25T07:39:01.310Z,20.60
2022-09-25T07:41:28.194Z,23.42
2022-09-25T07:44:37.415Z,25.80
2022-09-25T07:47:14.443Z,19.95
2022-09-25T07:49:41.767Z,14.77
2022-09-25T07:52:08.638Z,14.82
2022-09-25T07:54:36.572Z,11.65
2022-09-25T07:57:03.899Z,14.45
2022-09-25T07:59:31.089Z,13.10
2022-09-25T08:01:58.271Z,18.08
2022-09-25T08:04:25.531Z,13.27
2022-09-25T08:06:52.365Z,16.92
2022-09-25T08:09:19.428Z,14.27
2022-09-25T08:11:46.214Z,7.50
2022-09-25T08:14:15.381Z,8.10
2022-09-25T08:16:49.389Z,9.65
2022-09-25T08:19:18.379Z,9.30
2022-09-25T08:21:45.494Z,13.38
2022-09-25T08:24:12.752Z,8.40
2022-09-25T08:26:40.009Z,6.95
2022-09-25T08:29:08.515Z,8.50
2022-09-25T08:31:35.646Z,9.82
2022-09-25T08:34:15.226Z,9.18
2022-09-25T08:36:52.770Z,8.63
2022-09-25T08:39:19.793Z,10.50
2022-09-25T08:41:50.766Z,10.93
2022-09-25T08:44:46.009Z,6.75
2022-09-25T08:47:41.400Z,4.88
2022-09-25T08:50:26.866Z,8.02
2022-09-25T08:53:03.858Z,9.05
2022-09-25T08:55:58.278Z,11.27
2022-09-25T08:58:32.803Z,8.32
2022-09-25T09:01:04.840Z,7.50
2022-09-25T09:03:33.601Z,5.53
2022-09-25T09:06:05.865Z,6.07
2022-09-25T09:08:36.859Z,7.95
2022-09-25T09:11:23.868Z,8.65
2022-09-25T09:13:57.415Z,8.15
2022-09-25T09:16:27.138Z,6.20
2022-09-25T09:18:55.933Z,6.57
2022-09-25T09:21:43.717Z,5.43
2022-09-25T09:24:10.747Z,4.75
2022-09-25T09:26:44.321Z,5.53
2022-09-25T09:29:26.143Z,11.23
2022-09-25T09:35:12.709Z,9.95
2022-09-25T09:38:13.989Z,5.80
2022-09-25T09:41:22.364Z,10.43
2022-09-25T09:43:58.030Z,8.82
2022-09-25T09:46:34.882Z,4.00
2022-09-25T09:49:13.704Z,6.78
2022-09-25T09:52:03.024Z,4.15
2022-09-25T09:54:46.353Z,9.15
2022-09-25T09:57:22.360Z,5.05
2022-09-25T10:00:07.884Z,5.28
2022-09-25T10:02:46.324Z,4.30
2022-09-25T10:05:19.455Z,5.78
2022-09-25T10:07:48.786Z,5.70
2022-09-25T10:10:18.587Z,4.85
2022-09-25T10:12:51.385Z,6.43
2022-09-25T10:15:30.982Z,4.32
2022-09-25T10:18:00.027Z,6.45
2022-09-25T10:20:36.370Z,5.18
2022-09-25T10:23:06.523Z,7.00
2022-09-25T10:25:39.251Z,7.88
2022-09-25T10:28:36.852Z,2.72
2022-09-25T10:31:09.409Z,5.45
2022-09-25T10:33:36.553Z,3.47
2022-09-25T10:36:03.598Z,5.78
2022-09-25T10:38:39.391Z,4.43
2022-09-25T10:41:13.301Z,11.65
2022-09-25T10:44:01.100Z,5.95
2022-09-25T10:46:51.669Z,9.77
2022-09-25T10:49:42.880Z,7.28
2022-09-25T10:52:14.885Z,3.47
2022-09-25T10:54:45.756Z,5.78
2022-09-25T10:57:18.367Z,7.43
2022-09-25T10:59:52.792Z,3.83
2022-09-25T11:02:38.078Z,8.88
2022-09-25T11:05:07.517Z,7.03
2022-09-25T11:07:34.979Z,5.45
2022-09-25T11:10:02.082Z,7.63
2022-09-25T11:12:29.991Z,4.35
2022-09-25T11:15:03.104Z,5.22
2022-09-25T11:17:42.765Z,41.80
2022-09-25T11:20:16.577Z,8.60
2022-09-25T11:23:03.657Z,3.65
2022-09-25T11:25:42.389Z,4.70
2022-09-25T11:28:38.137Z,5.53
2022-09-25T11:31:24.429Z,3.63
2022-09-25T11:34:08.176Z,1.90
2022-09-25T11:37:01.218Z,3.42
2022-09-25T11:39:55.659Z,6.35
2022-09-25T11:42:33.278Z,5.50
2022-09-25T11:45:09.226Z,6.18
2022-09-25T11:48:12.557Z,2.95
2022-09-25T11:51:09.651Z,2.47
2022-09-25T11:54:25.719Z,7.07
2022-09-25T11:57:03.126Z,8.95
2022-09-25T11:59:51.191Z,6.22
2022-09-25T12:02:51.475Z,5.20
2022-09-25T12:05:41.361Z,2.90
2022-09-25T12:08:11.335Z,5.20
2022-09-25T12:11:11.593Z,6.45
2022-09-25T12:13:45.650Z,5.93
2022-09-25T12:16:39.726Z,3.22
2022-09-25T12:19:24.454Z,4.35
2022-09-25T12:22:16.168Z,6.13
2022-09-25T12:25:01.371Z,4.72
2022-09-25T12:28:01.205Z,5.50
2022-09-25T12:31:07.686Z,6.45
2022-09-25T12:33:34.594Z,13.77
2022-09-25T12:36:23.072Z,8.10
2022-09-25T12:38:55.531Z,5.97
2022-09-25T12:41:49.083Z,4.85
2022-09-25T12:44:32.402Z,6.88
2022-09-25T12:47:21.460Z,10.32
2022-09-25T12:50:13.356Z,7.32
2022-09-25T12:52:59.869Z,6.28
2022-09-25T12:55:45.916Z,5.40
2022-09-25T12:58:50.998Z,3.95
2022-09-25T13:01:25.279Z,2.35
2022-09-25T13:04:12.579Z,4.75
2022-09-25T13:07:10.183Z,6.43
2022-09-25T13:09:47.369Z,7.05
2022-09-25T13:12:34.706Z,4.90
2022-09-25T13:15:16.482Z,4.68
2022-09-25T13:17:44.005Z,6.70
2022-09-25T13:20:37.138Z,6.68
2022-09-25T13:23:18.266Z,3.95
2022-09-25T13:25:58.949Z,3.37
2022-09-25T13:28:32.621Z,1.88
2022-09-25T13:31:03.331Z,4.78
2022-09-25T13:33:52.804Z,5.80
2022-09-25T13:36:23.575Z,3.90
2022-09-25T13:39:26.737Z,5.28
2022-09-25T13:42:07.013Z,3.92
2022-09-25T13:44:45.129Z,3.05
2022-09-25T13:47:24.500Z,5.40
2022-09-25T13:50:27.573Z,3.25
2022-09-25T13:53:22.562Z,4.55
2022-09-25T13:55:55.609Z,4.63
2022-09-25T13:58:28.406Z,3.80
2022-09-25T14:00:58.578Z,3.40
2022-09-25T14:03:31.948Z,2.35
2022-09-25T14:06:00.026Z,8.38
2022-09-25T14:08:31.023Z,5.20
2022-09-25T14:11:03.471Z,4.50
2022-09-25T14:13:31.081Z,3.45
2022-09-25T14:16:00.739Z,5.43
2022-09-25T14:18:39.629Z,9.23
2022-09-25T14:21:07.801Z,4.03
2022-09-25T14:23:47.785Z,5.90
2022-09-25T14:26:24.876Z,6.40
2022-09-25T14:28:53.819Z,4.13
2022-09-25T14:31:30.427Z,8.55
2022-09-25T14:35:05.470Z,5.05
2022-09-25T14:37:45.468Z,5.18
2022-09-25T14:40:35.734Z,3.55
2022-09-25T14:43:45.011Z,2.45
2022-09-25T14:46:18.633Z,5.15
2022-09-25T14:49:11.119Z,3.63
2022-09-25T14:51:43.490Z,3.15
2022-09-25T14:54:22.193Z,8.02
2022-09-25T14:56:54.857Z,3.08
2022-09-25T14:59:40.231Z,2.17
2022-09-25T15:02:23.474Z,2.00
2022-09-25T15:04:51.280Z,4.00
2022-09-25T15:07:25.029Z,2.95
2022-09-25T15:10:08.670Z,2.53
2022-09-25T15:12:35.898Z,1.83
2022-09-25T15:15:21.586Z,2.80
2022-09-25T15:17:54.175Z,2.42
2022-09-25T15:20:33.127Z,6.57
2022-09-25T15:23:08.653Z,3.65
2022-09-25T15:25:42.404Z,2.22
2022-09-25T15:28:13.953Z,3.63
2022-09-25T15:33:23.256Z,1.50
2022-09-25T15:36:01.822Z,4.27
2022-09-25T15:38:34.646Z,2.35
2022-09-25T15:41:02.344Z,1.73
2022-09-25T15:43:30.180Z,3.63
2022-09-25T15:46:09.433Z,3.90
2022-09-25T15:48:42.093Z,2.30
2022-09-25T15:51:19.629Z,1.13
2022-09-25T15:54:05.088Z,3.58
2022-09-25T15:56:45.679Z,2.05
2022-09-25T15:59:24.206Z,7.50
2022-09-25T16:02:09.912Z,2.50
2022-09-25T16:04:46.211Z,2.63
2022-09-25T16:07:24.352Z,5.40
2022-09-25T16:09:58.184Z,6.07
2022-09-25T16:12:43.137Z,7.38
2022-09-25T16:15:33.472Z,5.75
2022-09-25T16:18:06.019Z,2.88
2022-09-25T16:20:34.846Z,2.70
2022-09-25T16:23:04.935Z,5.70
2022-09-25T16:25:32.783Z,3.15
2022-09-25T16:28:05.180Z,7.68
2022-09-25T16:30:32.393Z,6.47
2022-09-25T16:33:07.120Z,9.00
2022-09-25T16:36:05.259Z,4.65
2022-09-25T16:38:35.010Z,5.10
2022-09-25T16:41:23.412Z,3.25
2022-09-25T16:44:18.589Z,3.67
2022-09-25T16:46:52.998Z,7.63
2022-09-25T16:49:20.053Z,4.65
2022-09-25T16:51:48.300Z,3.50
2022-09-25T16:54:17.329Z,4.53
2022-09-25T16:56:45.703Z,5.18
2022-09-25T16:59:18.809Z,4.30
2022-09-25T17:01:51.788Z,5.55
2022-09-25T17:04:26.413Z,3.42
2022-09-25T17:06:58.246Z,2.70
2022-09-25T17:09:28.405Z,5.50
2022-09-25T17:12:07.533Z,4.95
2022-09-25T17:14:35.267Z,3.72
2022-09-25T17:17:02.343Z,5.75
2022-09-25T17:19:29.566Z,5.20
2022-09-25T17:21:57.330Z,15.27
2022-09-25T17:24:27.271Z,8.18
2022-09-25T17:26:54.553Z,6.03
2022-09-25T17:29:21.937Z,8.48
2022-09-25T17:31:49.015Z,4.80
2022-09-25T17:34:28.690Z,9.40
2022-09-25T17:36:56.496Z,12.25
2022-09-25T17:39:23.786Z,5.70
2022-09-25T17:41:51.048Z,7.85
